Modesto City Co-Harry Sham Field
KMOD : now visible

Airfield :











YOU CAN JOIN US ON...

 
LOGIN :

Register | Disclaimer

   EN    FR    IT 

 









Legend :    VFR   Marginal VFR   IFR   Intensive IFR   Very Intensive IFR
Visi :
Ceiling :
>= 8 km
>= 3000ft
5 to 8 km
1000 to 3000 ft
1500m to 5 km
500 to 1000 ft
800 to 1500m
200 to 500 ft
< 800m
< 200 ft
Symbols :   Thunderstorms  Fog  Heavy snow  Heavy precipitations  Wind > 20 kt







- Airport Elevation : 97 ft
- IATA code : MOD


KMOD - Modesto City Co-Harry Sham Field

CURRENT METAR :
  • 200953Z AUTO 35005KT 10SM CLR 17/09 A2989 RMK AO2 SLP121 T01670094

EXPIRED METARs :
  • 200853Z AUTO 33006KT 10SM CLR 18/09 A2989 RMK AO2 SLP121 T01780089 53003
  • 200753Z AUTO 30009KT 10SM CLR 18/09 A2988 RMK AO2 SLP119 T01830089 402610139

TAF KMOD
Valid from the 20 at 06:00 until the 21 at 06:00 UTC


200539Z 2006/2106 33009KT P6SM SKC
FM200700 34004KT P6SM SKC
FM201800 31009KT P6SM SKC
No reported NOTAMs for that airfield.



MET'MAP, your aeronautical weather chart ! - Copyright ORBIFLY December 2007 - Disclaimer

ORBIFLY MET'MAP TEAM :

Programming & Development : Alexandra Zaïnal
Concept & Development : Baudouin d'Aumeries
Co-Development & Prog : Marc-Olivier Méhu
Technical & hardware support : Manuel Goepfert

Contact : metmap@orbifly.com




SOURCES & CREDITS :

   NOAA       Earth
Advisory